Pilot information for Tulloch Airstrip

[ general | frequencies | runways | weather | notam | navaids | links ]

Caution: This page displays community-maintained data: information may be missing, incorrect, or out of date. Please confirm with an official source before making travel plans.

General information for Tulloch Airstrip

Type: local airport(light traffic)
Scheduled airline service: no
Serves: Bog Walk, Saint Catherine, Jamaica
Latitude: 18.104597 | 18 6.275814 N | N18 06 16
Longitude: -76.987810 | 76 59.268608 W | W076 59 16
Field elevation: 300 ft/91 m MSL

Radio communication frequencies for Tulloch Airstrip

No communications frequencies known for Tulloch Airstrip.

Members can add and update frequencies.

Runways at Tulloch Airstrip

No runway information available for Tulloch Airstrip.

Members can add and update runway information.

Aviation weather for Tulloch Airstrip

Current conditions (METAR) for Tulloch Airstrip

Closest report is Norman Manley International Airport, 15.3 nm (28.3 km) SE. Retrieved 2014/12/19 12:00:

MKJP 191200Z 32005KT 9999 FEW022 23/22 Q1014

Forecast (TAF) for Tulloch Airstrip

Closest forecast is Norman Manley International Airport, 15.3 nm (28.3 km) SE. Retrieved 2014/12/19 12:45:

TAF MKJP 191045Z 1912/2012 35005KT 9999 FEW022 
      BECMG 1913/1915 17010KT 
      BECMG 2001/2003 34005KT

Notices to Airmen (NOTAM) for Tulloch Airstrip

We have no current NOTAMs for Tulloch Airstrip. Please check with an official source to confirm.